sensor_id;sensor_type;location;lat;lon;timestamp;P1;durP1;ratioP1;P2;durP2;ratioP2
53281;SDS011;39167;52.794;6.892;2023-04-26T00:00:44;11.20;;;2.72;;
53281;SDS011;39167;52.794;6.892;2023-04-26T00:03:10;6.82;;;2.17;;
53281;SDS011;39167;52.794;6.892;2023-04-26T00:05:39;10.55;;;2.65;;
53281;SDS011;39167;52.794;6.892;2023-04-26T00:08:05;8.82;;;2.25;;
53281;SDS011;39167;52.794;6.892;2023-04-26T00:10:30;7.40;;;2.40;;
53281;SDS011;39167;52.794;6.892;2023-04-26T00:12:56;10.57;;;2.40;;
53281;SDS011;39167;52.794;6.892;2023-04-26T00:15:22;6.63;;;2.25;;
53281;SDS011;39167;52.794;6.892;2023-04-26T00:17:48;7.05;;;2.15;;
53281;SDS011;39167;52.794;6.892;2023-04-26T00:20:14;8.65;;;2.80;;
53281;SDS011;39167;52.794;6.892;2023-04-26T00:22:40;12.02;;;2.92;;
53281;SDS011;39167;52.794;6.892;2023-04-26T00:25:06;9.48;;;2.72;;
53281;SDS011;39167;52.794;6.892;2023-04-26T00:27:33;12.50;;;3.15;;
53281;SDS011;39167;52.794;6.892;2023-04-26T00:29:58;11.93;;;2.80;;
53281;SDS011;39167;52.794;6.892;2023-04-26T00:32:24;10.77;;;2.38;;
53281;SDS011;39167;52.794;6.892;2023-04-26T00:34:50;7.60;;;2.50;;
53281;SDS011;39167;52.794;6.892;2023-04-26T00:37:15;7.78;;;2.35;;
53281;SDS011;39167;52.794;6.892;2023-04-26T00:39:41;8.57;;;2.47;;
53281;SDS011;39167;52.794;6.892;2023-04-26T00:42:07;7.05;;;2.33;;
53281;SDS011;39167;52.794;6.892;2023-04-26T00:44:33;8.82;;;2.70;;
53281;SDS011;39167;52.794;6.892;2023-04-26T00:46:58;6.85;;;2.42;;
53281;SDS011;39167;52.794;6.892;2023-04-26T00:49:25;8.65;;;2.50;;
53281;SDS011;39167;52.794;6.892;2023-04-26T00:51:51;8.13;;;2.50;;
53281;SDS011;39167;52.794;6.892;2023-04-26T00:54:18;7.57;;;2.80;;
53281;SDS011;39167;52.794;6.892;2023-04-26T00:56:45;7.82;;;2.58;;
53281;SDS011;39167;52.794;6.892;2023-04-26T00:59:11;10.38;;;2.90;;
53281;SDS011;39167;52.794;6.892;2023-04-26T01:01:37;7.43;;;3.03;;
53281;SDS011;39167;52.794;6.892;2023-04-26T01:04:04;9.50;;;2.70;;
53281;SDS011;39167;52.794;6.892;2023-04-26T01:06:32;10.30;;;2.83;;
53281;SDS011;39167;52.794;6.892;2023-04-26T01:08:59;8.25;;;2.60;;
53281;SDS011;39167;52.794;6.892;2023-04-26T01:11:39;8.05;;;2.38;;
53281;SDS011;39167;52.794;6.892;2023-04-26T01:14:06;8.38;;;2.90;;
53281;SDS011;39167;52.794;6.892;2023-04-26T01:16:32;9.98;;;2.80;;
53281;SDS011;39167;52.794;6.892;2023-04-26T01:19:09;12.23;;;3.38;;
53281;SDS011;39167;52.794;6.892;2023-04-26T01:21:37;12.52;;;3.00;;
53281;SDS011;39167;52.794;6.892;2023-04-26T01:24:08;11.38;;;2.92;;
53281;SDS011;39167;52.794;6.892;2023-04-26T01:26:35;12.15;;;3.45;;
53281;SDS011;39167;52.794;6.892;2023-04-26T01:31:43;10.02;;;2.20;;
53281;SDS011;39167;52.794;6.892;2023-04-26T01:34:10;10.60;;;2.75;;
53281;SDS011;39167;52.794;6.892;2023-04-26T01:36:36;7.35;;;2.90;;
53281;SDS011;39167;52.794;6.892;2023-04-26T01:39:02;7.10;;;3.05;;
53281;SDS011;39167;52.794;6.892;2023-04-26T01:41:28;5.93;;;2.78;;
53281;SDS011;39167;52.794;6.892;2023-04-26T01:43:54;10.13;;;2.70;;
53281;SDS011;39167;52.794;6.892;2023-04-26T01:46:20;6.20;;;2.40;;
53281;SDS011;39167;52.794;6.892;2023-04-26T01:48:46;7.82;;;2.78;;
53281;SDS011;39167;52.794;6.892;2023-04-26T01:51:12;9.90;;;2.47;;
53281;SDS011;39167;52.794;6.892;2023-04-26T01:53:38;9.57;;;2.78;;
53281;SDS011;39167;52.794;6.892;2023-04-26T01:56:04;12.40;;;3.20;;
53281;SDS011;39167;52.794;6.892;2023-04-26T01:58:30;7.88;;;2.50;;
53281;SDS011;39167;52.794;6.892;2023-04-26T02:00:56;6.47;;;2.70;;
53281;SDS011;39167;52.794;6.892;2023-04-26T02:03:29;8.00;;;2.35;;
53281;SDS011;39167;52.794;6.892;2023-04-26T02:05:55;8.93;;;2.03;;
53281;SDS011;39167;52.794;6.892;2023-04-26T02:08:21;8.63;;;2.75;;
53281;SDS011;39167;52.794;6.892;2023-04-26T02:10:46;8.52;;;2.75;;
53281;SDS011;39167;52.794;6.892;2023-04-26T02:13:13;7.57;;;2.40;;
53281;SDS011;39167;52.794;6.892;2023-04-26T02:15:39;5.50;;;2.53;;
53281;SDS011;39167;52.794;6.892;2023-04-26T02:18:06;7.38;;;2.53;;
53281;SDS011;39167;52.794;6.892;2023-04-26T02:20:33;6.50;;;2.30;;
53281;SDS011;39167;52.794;6.892;2023-04-26T02:23:00;5.20;;;2.58;;
53281;SDS011;39167;52.794;6.892;2023-04-26T02:25:26;11.68;;;2.40;;
53281;SDS011;39167;52.794;6.892;2023-04-26T02:27:51;8.45;;;2.60;;
53281;SDS011;39167;52.794;6.892;2023-04-26T02:30:17;4.50;;;2.05;;
53281;SDS011;39167;52.794;6.892;2023-04-26T02:32:43;6.20;;;2.10;;
53281;SDS011;39167;52.794;6.892;2023-04-26T02:35:08;4.78;;;2.03;;
53281;SDS011;39167;52.794;6.892;2023-04-26T02:37:34;6.95;;;2.42;;
53281;SDS011;39167;52.794;6.892;2023-04-26T02:40:01;6.20;;;2.72;;
53281;SDS011;39167;52.794;6.892;2023-04-26T02:42:29;9.35;;;2.50;;
53281;SDS011;39167;52.794;6.892;2023-04-26T02:44:55;7.10;;;2.45;;
53281;SDS011;39167;52.794;6.892;2023-04-26T02:47:21;7.32;;;2.47;;
53281;SDS011;39167;52.794;6.892;2023-04-26T02:49:46;5.57;;;2.25;;
53281;SDS011;39167;52.794;6.892;2023-04-26T02:52:12;6.60;;;2.50;;
53281;SDS011;39167;52.794;6.892;2023-04-26T02:54:38;5.82;;;2.42;;
53281;SDS011;39167;52.794;6.892;2023-04-26T02:57:04;8.32;;;2.55;;
53281;SDS011;39167;52.794;6.892;2023-04-26T02:59:29;7.20;;;2.50;;
53281;SDS011;39167;52.794;6.892;2023-04-26T03:01:55;6.22;;;2.75;;
53281;SDS011;39167;52.794;6.892;2023-04-26T03:04:21;9.55;;;2.35;;
53281;SDS011;39167;52.794;6.892;2023-04-26T03:06:46;5.70;;;2.45;;
53281;SDS011;39167;52.794;6.892;2023-04-26T03:09:12;9.40;;;2.63;;
53281;SDS011;39167;52.794;6.892;2023-04-26T03:11:38;7.88;;;2.78;;
53281;SDS011;39167;52.794;6.892;2023-04-26T03:14:03;8.63;;;2.38;;
53281;SDS011;39167;52.794;6.892;2023-04-26T03:16:29;7.13;;;2.60;;
53281;SDS011;39167;52.794;6.892;2023-04-26T03:18:55;6.95;;;2.33;;
53281;SDS011;39167;52.794;6.892;2023-04-26T03:21:21;4.45;;;2.28;;
53281;SDS011;39167;52.794;6.892;2023-04-26T03:23:46;7.00;;;2.50;;
53281;SDS011;39167;52.794;6.892;2023-04-26T03:26:12;7.32;;;2.65;;
53281;SDS011;39167;52.794;6.892;2023-04-26T03:28:38;9.52;;;2.53;;
53281;SDS011;39167;52.794;6.892;2023-04-26T03:31:04;8.60;;;2.55;;
53281;SDS011;39167;52.794;6.892;2023-04-26T03:33:29;6.53;;;2.67;;
53281;SDS011;39167;52.794;6.892;2023-04-26T03:35:56;8.95;;;2.70;;
53281;SDS011;39167;52.794;6.892;2023-04-26T03:38:21;5.57;;;2.40;;
53281;SDS011;39167;52.794;6.892;2023-04-26T03:40:47;7.00;;;2.20;;
53281;SDS011;39167;52.794;6.892;2023-04-26T03:43:13;8.27;;;2.53;;
53281;SDS011;39167;52.794;6.892;2023-04-26T03:45:39;7.30;;;2.42;;
53281;SDS011;39167;52.794;6.892;2023-04-26T03:48:05;10.38;;;3.42;;
53281;SDS011;39167;52.794;6.892;2023-04-26T03:50:30;7.40;;;2.33;;
53281;SDS011;39167;52.794;6.892;2023-04-26T03:52:56;8.27;;;2.53;;
53281;SDS011;39167;52.794;6.892;2023-04-26T03:55:22;4.43;;;2.25;;
53281;SDS011;39167;52.794;6.892;2023-04-26T03:57:48;9.15;;;2.83;;
53281;SDS011;39167;52.794;6.892;2023-04-26T04:00:13;8.35;;;2.80;;
53281;SDS011;39167;52.794;6.892;2023-04-26T04:02:40;5.97;;;2.33;;
53281;SDS011;39167;52.794;6.892;2023-04-26T04:05:06;6.72;;;2.72;;
53281;SDS011;39167;52.794;6.892;2023-04-26T04:07:33;13.05;;;2.80;;
53281;SDS011;39167;52.794;6.892;2023-04-26T04:09:59;4.82;;;2.15;;
53281;SDS011;39167;52.794;6.892;2023-04-26T04:12:25;7.40;;;2.50;;
53281;SDS011;39167;52.794;6.892;2023-04-26T04:14:51;5.40;;;2.40;;
53281;SDS011;39167;52.794;6.892;2023-04-26T04:17:20;5.88;;;2.92;;
53281;SDS011;39167;52.794;6.892;2023-04-26T04:19:45;7.10;;;2.42;;
53281;SDS011;39167;52.794;6.892;2023-04-26T04:22:11;7.05;;;2.45;;
53281;SDS011;39167;52.794;6.892;2023-04-26T04:24:37;7.05;;;2.35;;
53281;SDS011;39167;52.794;6.892;2023-04-26T04:27:02;5.50;;;2.38;;
53281;SDS011;39167;52.794;6.892;2023-04-26T04:29:28;8.35;;;2.88;;
53281;SDS011;39167;52.794;6.892;2023-04-26T04:31:55;8.77;;;2.45;;
53281;SDS011;39167;52.794;6.892;2023-04-26T04:34:20;7.45;;;2.30;;
53281;SDS011;39167;52.794;6.892;2023-04-26T04:36:48;7.82;;;2.88;;
53281;SDS011;39167;52.794;6.892;2023-04-26T04:39:14;7.57;;;2.53;;
53281;SDS011;39167;52.794;6.892;2023-04-26T04:41:41;9.63;;;2.70;;
53281;SDS011;39167;52.794;6.892;2023-04-26T04:44:13;5.32;;;2.78;;
53281;SDS011;39167;52.794;6.892;2023-04-26T04:46:43;7.18;;;2.88;;
53281;SDS011;39167;52.794;6.892;2023-04-26T04:49:09;8.00;;;3.38;;
53281;SDS011;39167;52.794;6.892;2023-04-26T04:51:40;9.05;;;3.40;;
53281;SDS011;39167;52.794;6.892;2023-04-26T04:54:09;9.63;;;3.00;;
53281;SDS011;39167;52.794;6.892;2023-04-26T04:56:36;9.75;;;3.22;;
53281;SDS011;39167;52.794;6.892;2023-04-26T04:59:02;8.45;;;2.88;;
53281;SDS011;39167;52.794;6.892;2023-04-26T05:01:29;7.20;;;3.15;;
53281;SDS011;39167;52.794;6.892;2023-04-26T05:03:56;7.40;;;3.58;;
53281;SDS011;39167;52.794;6.892;2023-04-26T05:06:22;9.27;;;3.00;;
53281;SDS011;39167;52.794;6.892;2023-04-26T05:08:48;15.98;;;3.35;;
53281;SDS011;39167;52.794;6.892;2023-04-26T05:11:14;9.85;;;2.90;;
53281;SDS011;39167;52.794;6.892;2023-04-26T05:13:39;7.32;;;3.17;;
53281;SDS011;39167;52.794;6.892;2023-04-26T05:16:05;8.60;;;3.20;;
53281;SDS011;39167;52.794;6.892;2023-04-26T05:18:31;8.88;;;2.97;;
53281;SDS011;39167;52.794;6.892;2023-04-26T05:20:57;7.32;;;2.65;;
53281;SDS011;39167;52.794;6.892;2023-04-26T05:23:22;7.70;;;2.78;;
53281;SDS011;39167;52.794;6.892;2023-04-26T05:25:48;7.30;;;3.25;;
53281;SDS011;39167;52.794;6.892;2023-04-26T05:28:15;9.30;;;3.00;;
53281;SDS011;39167;52.794;6.892;2023-04-26T05:30:40;8.10;;;3.03;;
53281;SDS011;39167;52.794;6.892;2023-04-26T05:33:10;10.35;;;3.33;;
53281;SDS011;39167;52.794;6.892;2023-04-26T05:35:35;8.25;;;2.85;;
53281;SDS011;39167;52.794;6.892;2023-04-26T05:38:01;7.78;;;2.90;;
53281;SDS011;39167;52.794;6.892;2023-04-26T05:40:27;6.57;;;3.00;;
53281;SDS011;39167;52.794;6.892;2023-04-26T05:42:56;9.00;;;3.22;;
53281;SDS011;39167;52.794;6.892;2023-04-26T05:45:22;8.63;;;2.83;;
53281;SDS011;39167;52.794;6.892;2023-04-26T05:47:48;11.70;;;4.28;;
53281;SDS011;39167;52.794;6.892;2023-04-26T05:50:15;11.85;;;3.58;;
53281;SDS011;39167;52.794;6.892;2023-04-26T05:52:41;6.72;;;3.08;;
53281;SDS011;39167;52.794;6.892;2023-04-26T05:55:06;9.18;;;3.42;;
53281;SDS011;39167;52.794;6.892;2023-04-26T05:57:33;9.13;;;3.10;;
53281;SDS011;39167;52.794;6.892;2023-04-26T05:59:58;6.55;;;2.80;;
53281;SDS011;39167;52.794;6.892;2023-04-26T06:02:24;7.75;;;2.67;;
53281;SDS011;39167;52.794;6.892;2023-04-26T06:04:50;8.32;;;2.97;;
53281;SDS011;39167;52.794;6.892;2023-04-26T06:07:17;8.10;;;2.67;;
53281;SDS011;39167;52.794;6.892;2023-04-26T06:09:42;6.60;;;3.08;;
53281;SDS011;39167;52.794;6.892;2023-04-26T06:12:08;9.93;;;3.30;;
53281;SDS011;39167;52.794;6.892;2023-04-26T06:14:34;11.80;;;3.45;;
53281;SDS011;39167;52.794;6.892;2023-04-26T06:17:00;10.45;;;3.55;;
53281;SDS011;39167;52.794;6.892;2023-04-26T06:19:25;6.80;;;2.70;;
53281;SDS011;39167;52.794;6.892;2023-04-26T06:21:51;7.50;;;3.28;;
53281;SDS011;39167;52.794;6.892;2023-04-26T06:24:19;7.80;;;2.78;;
53281;SDS011;39167;52.794;6.892;2023-04-26T06:26:45;6.97;;;3.10;;
53281;SDS011;39167;52.794;6.892;2023-04-26T06:29:11;9.93;;;3.42;;
53281;SDS011;39167;52.794;6.892;2023-04-26T06:31:36;8.82;;;3.30;;
53281;SDS011;39167;52.794;6.892;2023-04-26T06:34:02;11.30;;;3.10;;
53281;SDS011;39167;52.794;6.892;2023-04-26T06:36:28;7.53;;;2.92;;
53281;SDS011;39167;52.794;6.892;2023-04-26T06:38:55;8.35;;;3.03;;
53281;SDS011;39167;52.794;6.892;2023-04-26T06:41:21;7.50;;;3.25;;
53281;SDS011;39167;52.794;6.892;2023-04-26T06:43:47;9.20;;;3.30;;
53281;SDS011;39167;52.794;6.892;2023-04-26T06:46:12;10.43;;;3.33;;
53281;SDS011;39167;52.794;6.892;2023-04-26T06:48:38;11.70;;;3.60;;
53281;SDS011;39167;52.794;6.892;2023-04-26T06:51:07;5.80;;;2.85;;
53281;SDS011;39167;52.794;6.892;2023-04-26T06:53:34;11.95;;;4.10;;
53281;SDS011;39167;52.794;6.892;2023-04-26T06:56:01;7.85;;;3.13;;
53281;SDS011;39167;52.794;6.892;2023-04-26T06:58:27;7.60;;;3.15;;
53281;SDS011;39167;52.794;6.892;2023-04-26T07:00:53;9.13;;;3.72;;
53281;SDS011;39167;52.794;6.892;2023-04-26T07:03:19;6.47;;;3.00;;
53281;SDS011;39167;52.794;6.892;2023-04-26T07:05:44;8.80;;;3.67;;
53281;SDS011;39167;52.794;6.892;2023-04-26T07:08:10;8.00;;;3.17;;
53281;SDS011;39167;52.794;6.892;2023-04-26T07:10:37;12.90;;;3.72;;
53281;SDS011;39167;52.794;6.892;2023-04-26T07:13:03;6.55;;;2.88;;
53281;SDS011;39167;52.794;6.892;2023-04-26T07:15:29;11.02;;;3.60;;
53281;SDS011;39167;52.794;6.892;2023-04-26T07:17:56;11.10;;;3.25;;
53281;SDS011;39167;52.794;6.892;2023-04-26T07:20:21;7.15;;;3.70;;
53281;SDS011;39167;52.794;6.892;2023-04-26T07:22:48;7.10;;;3.20;;
53281;SDS011;39167;52.794;6.892;2023-04-26T07:25:15;8.88;;;3.08;;
53281;SDS011;39167;52.794;6.892;2023-04-26T07:27:41;7.78;;;2.92;;
53281;SDS011;39167;52.794;6.892;2023-04-26T07:30:07;7.80;;;2.80;;
53281;SDS011;39167;52.794;6.892;2023-04-26T07:32:34;7.25;;;2.95;;
53281;SDS011;39167;52.794;6.892;2023-04-26T07:35:01;6.30;;;2.75;;
53281;SDS011;39167;52.794;6.892;2023-04-26T07:37:29;7.13;;;2.78;;
53281;SDS011;39167;52.794;6.892;2023-04-26T07:39:55;6.85;;;2.80;;
53281;SDS011;39167;52.794;6.892;2023-04-26T07:42:21;9.65;;;2.95;;
53281;SDS011;39167;52.794;6.892;2023-04-26T07:44:47;8.00;;;2.72;;
53281;SDS011;39167;52.794;6.892;2023-04-26T07:47:13;13.18;;;2.88;;
53281;SDS011;39167;52.794;6.892;2023-04-26T07:49:39;7.43;;;2.60;;
53281;SDS011;39167;52.794;6.892;2023-04-26T07:52:07;8.13;;;2.42;;
53281;SDS011;39167;52.794;6.892;2023-04-26T07:54:33;6.35;;;2.60;;
53281;SDS011;39167;52.794;6.892;2023-04-26T07:56:59;5.72;;;2.30;;
53281;SDS011;39167;52.794;6.892;2023-04-26T07:59:25;5.65;;;1.90;;
53281;SDS011;39167;52.794;6.892;2023-04-26T08:01:51;11.15;;;2.30;;
53281;SDS011;39167;52.794;6.892;2023-04-26T08:04:21;8.27;;;1.73;;
53281;SDS011;39167;52.794;6.892;2023-04-26T08:06:56;9.00;;;2.45;;
53281;SDS011;39167;52.794;6.892;2023-04-26T08:09:22;8.68;;;2.00;;
53281;SDS011;39167;52.794;6.892;2023-04-26T08:11:48;7.32;;;2.10;;
53281;SDS011;39167;52.794;6.892;2023-04-26T08:14:14;8.23;;;2.15;;
53281;SDS011;39167;52.794;6.892;2023-04-26T08:16:39;7.38;;;2.35;;
53281;SDS011;39167;52.794;6.892;2023-04-26T08:19:05;6.80;;;2.15;;
53281;SDS011;39167;52.794;6.892;2023-04-26T08:21:31;5.68;;;2.20;;
53281;SDS011;39167;52.794;6.892;2023-04-26T08:23:57;6.00;;;1.95;;
53281;SDS011;39167;52.794;6.892;2023-04-26T08:26:22;8.35;;;2.58;;
53281;SDS011;39167;52.794;6.892;2023-04-26T08:28:48;8.18;;;2.80;;
53281;SDS011;39167;52.794;6.892;2023-04-26T08:31:15;6.20;;;1.90;;
53281;SDS011;39167;52.794;6.892;2023-04-26T08:33:40;6.32;;;2.20;;
53281;SDS011;39167;52.794;6.892;2023-04-26T08:36:06;12.88;;;2.42;;
53281;SDS011;39167;52.794;6.892;2023-04-26T08:38:32;5.82;;;2.30;;
53281;SDS011;39167;52.794;6.892;2023-04-26T08:40:58;9.23;;;2.50;;
53281;SDS011;39167;52.794;6.892;2023-04-26T08:43:30;7.07;;;2.25;;
53281;SDS011;39167;52.794;6.892;2023-04-26T08:46:01;6.82;;;2.05;;
53281;SDS011;39167;52.794;6.892;2023-04-26T08:48:31;5.17;;;2.40;;
53281;SDS011;39167;52.794;6.892;2023-04-26T08:51:00;8.93;;;2.30;;
53281;SDS011;39167;52.794;6.892;2023-04-26T08:53:27;5.25;;;2.58;;
53281;SDS011;39167;52.794;6.892;2023-04-26T08:55:54;4.40;;;1.98;;
53281;SDS011;39167;52.794;6.892;2023-04-26T08:58:20;7.57;;;2.20;;
53281;SDS011;39167;52.794;6.892;2023-04-26T09:00:47;6.45;;;2.22;;
53281;SDS011;39167;52.794;6.892;2023-04-26T09:03:14;5.10;;;1.77;;
53281;SDS011;39167;52.794;6.892;2023-04-26T09:05:40;7.03;;;2.13;;
53281;SDS011;39167;52.794;6.892;2023-04-26T09:08:14;8.50;;;1.80;;
53281;SDS011;39167;52.794;6.892;2023-04-26T09:10:44;8.23;;;2.00;;
53281;SDS011;39167;52.794;6.892;2023-04-26T09:13:10;6.57;;;2.25;;
53281;SDS011;39167;52.794;6.892;2023-04-26T09:15:36;7.55;;;2.58;;
53281;SDS011;39167;52.794;6.892;2023-04-26T09:18:18;8.32;;;1.90;;
53281;SDS011;39167;52.794;6.892;2023-04-26T09:20:45;5.03;;;2.05;;
53281;SDS011;39167;52.794;6.892;2023-04-26T09:23:26;7.25;;;2.00;;
53281;SDS011;39167;52.794;6.892;2023-04-26T09:25:52;7.10;;;2.20;;
53281;SDS011;39167;52.794;6.892;2023-04-26T09:28:18;11.05;;;2.20;;
53281;SDS011;39167;52.794;6.892;2023-04-26T09:30:45;8.68;;;2.45;;
53281;SDS011;39167;52.794;6.892;2023-04-26T09:33:11;5.25;;;2.20;;
53281;SDS011;39167;52.794;6.892;2023-04-26T09:35:37;5.43;;;1.90;;
53281;SDS011;39167;52.794;6.892;2023-04-26T09:38:06;8.32;;;2.20;;
53281;SDS011;39167;52.794;6.892;2023-04-26T09:40:40;7.90;;;2.15;;
53281;SDS011;39167;52.794;6.892;2023-04-26T09:43:11;6.85;;;2.13;;
53281;SDS011;39167;52.794;6.892;2023-04-26T09:45:56;4.43;;;1.90;;
53281;SDS011;39167;52.794;6.892;2023-04-26T09:48:23;6.55;;;1.92;;
53281;SDS011;39167;52.794;6.892;2023-04-26T09:50:52;8.85;;;2.10;;
53281;SDS011;39167;52.794;6.892;2023-04-26T09:53:34;6.68;;;2.00;;
53281;SDS011;39167;52.794;6.892;2023-04-26T09:56:11;9.02;;;2.00;;
53281;SDS011;39167;52.794;6.892;2023-04-26T09:58:59;5.00;;;2.08;;
53281;SDS011;39167;52.794;6.892;2023-04-26T10:01:29;8.13;;;2.20;;
53281;SDS011;39167;52.794;6.892;2023-04-26T10:04:01;5.93;;;2.20;;
53281;SDS011;39167;52.794;6.892;2023-04-26T10:06:28;7.28;;;2.03;;
53281;SDS011;39167;52.794;6.892;2023-04-26T10:08:54;8.13;;;2.70;;
53281;SDS011;39167;52.794;6.892;2023-04-26T10:11:20;10.73;;;2.33;;
53281;SDS011;39167;52.794;6.892;2023-04-26T10:13:48;6.75;;;2.47;;
53281;SDS011;39167;52.794;6.892;2023-04-26T10:16:15;5.65;;;2.55;;
53281;SDS011;39167;52.794;6.892;2023-04-26T10:18:41;8.30;;;2.85;;
53281;SDS011;39167;52.794;6.892;2023-04-26T10:23:39;6.22;;;2.10;;
53281;SDS011;39167;52.794;6.892;2023-04-26T10:26:05;6.97;;;2.95;;
53281;SDS011;39167;52.794;6.892;2023-04-26T10:31:09;7.00;;;2.20;;
53281;SDS011;39167;52.794;6.892;2023-04-26T10:33:35;11.38;;;2.55;;
53281;SDS011;39167;52.794;6.892;2023-04-26T10:38:32;4.60;;;1.90;;
53281;SDS011;39167;52.794;6.892;2023-04-26T10:46:58;7.32;;;1.20;;
53281;SDS011;39167;52.794;6.892;2023-04-26T10:49:24;3.67;;;1.60;;
53281;SDS011;39167;52.794;6.892;2023-04-26T10:52:09;4.25;;;1.67;;
53281;SDS011;39167;52.794;6.892;2023-04-26T10:54:55;6.85;;;2.15;;
53281;SDS011;39167;52.794;6.892;2023-04-26T10:57:45;2.92;;;1.40;;
53281;SDS011;39167;52.794;6.892;2023-04-26T11:00:24;7.10;;;2.05;;
53281;SDS011;39167;52.794;6.892;2023-04-26T11:02:52;5.68;;;2.00;;
53281;SDS011;39167;52.794;6.892;2023-04-26T11:08:15;6.63;;;2.40;;
53281;SDS011;39167;52.794;6.892;2023-04-26T11:10:44;8.27;;;2.70;;
53281;SDS011;39167;52.794;6.892;2023-04-26T11:13:16;7.03;;;2.90;;
53281;SDS011;39167;52.794;6.892;2023-04-26T11:15:43;6.95;;;2.70;;
53281;SDS011;39167;52.794;6.892;2023-04-26T11:18:10;5.85;;;2.22;;
53281;SDS011;39167;52.794;6.892;2023-04-26T11:20:36;9.07;;;2.50;;
53281;SDS011;39167;52.794;6.892;2023-04-26T11:23:01;9.70;;;3.00;;
53281;SDS011;39167;52.794;6.892;2023-04-26T11:25:28;5.18;;;2.13;;
53281;SDS011;39167;52.794;6.892;2023-04-26T11:28:00;7.20;;;2.28;;
53281;SDS011;39167;52.794;6.892;2023-04-26T11:30:27;5.88;;;2.38;;
53281;SDS011;39167;52.794;6.892;2023-04-26T11:32:54;4.80;;;2.38;;
53281;SDS011;39167;52.794;6.892;2023-04-26T11:35:21;7.10;;;2.70;;
53281;SDS011;39167;52.794;6.892;2023-04-26T11:37:47;8.85;;;2.65;;
53281;SDS011;39167;52.794;6.892;2023-04-26T11:40:16;4.57;;;2.00;;
53281;SDS011;39167;52.794;6.892;2023-04-26T11:42:43;9.13;;;2.45;;
53281;SDS011;39167;52.794;6.892;2023-04-26T11:45:14;8.65;;;2.10;;
53281;SDS011;39167;52.794;6.892;2023-04-26T11:47:40;5.68;;;1.95;;
53281;SDS011;39167;52.794;6.892;2023-04-26T11:50:07;10.23;;;2.50;;
53281;SDS011;39167;52.794;6.892;2023-04-26T11:52:34;5.65;;;2.10;;
53281;SDS011;39167;52.794;6.892;2023-04-26T11:55:03;5.15;;;2.10;;
53281;SDS011;39167;52.794;6.892;2023-04-26T11:57:30;7.35;;;2.30;;
53281;SDS011;39167;52.794;6.892;2023-04-26T12:00:09;4.43;;;2.30;;
53281;SDS011;39167;52.794;6.892;2023-04-26T12:02:44;6.90;;;2.28;;
53281;SDS011;39167;52.794;6.892;2023-04-26T12:05:21;3.50;;;1.90;;
53281;SDS011;39167;52.794;6.892;2023-04-26T12:07:51;10.63;;;2.35;;
53281;SDS011;39167;52.794;6.892;2023-04-26T12:12:50;4.35;;;2.03;;
53281;SDS011;39167;52.794;6.892;2023-04-26T12:15:21;4.28;;;2.10;;
53281;SDS011;39167;52.794;6.892;2023-04-26T12:17:52;7.22;;;2.10;;
53281;SDS011;39167;52.794;6.892;2023-04-26T12:20:32;8.32;;;1.98;;
53281;SDS011;39167;52.794;6.892;2023-04-26T12:23:00;7.30;;;2.10;;
53281;SDS011;39167;52.794;6.892;2023-04-26T12:25:29;6.80;;;2.10;;
53281;SDS011;39167;52.794;6.892;2023-04-26T12:27:57;5.35;;;2.28;;
53281;SDS011;39167;52.794;6.892;2023-04-26T12:30:23;5.45;;;2.40;;
53281;SDS011;39167;52.794;6.892;2023-04-26T12:32:50;8.63;;;2.20;;
53281;SDS011;39167;52.794;6.892;2023-04-26T12:35:16;7.82;;;2.38;;
53281;SDS011;39167;52.794;6.892;2023-04-26T12:37:41;8.02;;;2.22;;
53281;SDS011;39167;52.794;6.892;2023-04-26T12:40:07;6.07;;;2.20;;
53281;SDS011;39167;52.794;6.892;2023-04-26T12:42:34;6.88;;;2.38;;
53281;SDS011;39167;52.794;6.892;2023-04-26T12:45:00;10.25;;;2.20;;
53281;SDS011;39167;52.794;6.892;2023-04-26T12:47:26;5.13;;;2.35;;
53281;SDS011;39167;52.794;6.892;2023-04-26T12:49:52;5.65;;;2.40;;
53281;SDS011;39167;52.794;6.892;2023-04-26T12:52:17;5.57;;;2.00;;
53281;SDS011;39167;52.794;6.892;2023-04-26T12:54:43;6.00;;;2.00;;
53281;SDS011;39167;52.794;6.892;2023-04-26T12:57:11;6.97;;;2.22;;
53281;SDS011;39167;52.794;6.892;2023-04-26T12:59:38;8.43;;;2.15;;
53281;SDS011;39167;52.794;6.892;2023-04-26T13:02:04;8.57;;;2.35;;
53281;SDS011;39167;52.794;6.892;2023-04-26T13:04:29;5.72;;;2.55;;
53281;SDS011;39167;52.794;6.892;2023-04-26T13:06:55;7.10;;;2.28;;
53281;SDS011;39167;52.794;6.892;2023-04-26T13:09:21;5.90;;;2.50;;
53281;SDS011;39167;52.794;6.892;2023-04-26T13:11:47;9.15;;;2.88;;
53281;SDS011;39167;52.794;6.892;2023-04-26T13:14:13;6.32;;;2.60;;
53281;SDS011;39167;52.794;6.892;2023-04-26T13:16:41;6.22;;;2.58;;
53281;SDS011;39167;52.794;6.892;2023-04-26T13:19:10;7.75;;;2.90;;
53281;SDS011;39167;52.794;6.892;2023-04-26T13:21:36;8.20;;;2.40;;
53281;SDS011;39167;52.794;6.892;2023-04-26T13:24:02;9.85;;;3.08;;
53281;SDS011;39167;52.794;6.892;2023-04-26T13:26:28;5.75;;;2.05;;
53281;SDS011;39167;52.794;6.892;2023-04-26T13:28:54;7.70;;;2.78;;
53281;SDS011;39167;52.794;6.892;2023-04-26T13:31:20;6.82;;;2.00;;
53281;SDS011;39167;52.794;6.892;2023-04-26T13:33:46;7.82;;;2.50;;
53281;SDS011;39167;52.794;6.892;2023-04-26T13:36:13;5.93;;;2.33;;
53281;SDS011;39167;52.794;6.892;2023-04-26T13:38:42;8.20;;;2.67;;
53281;SDS011;39167;52.794;6.892;2023-04-26T13:41:08;12.00;;;3.20;;
53281;SDS011;39167;52.794;6.892;2023-04-26T13:43:34;7.72;;;3.17;;
53281;SDS011;39167;52.794;6.892;2023-04-26T13:46:00;7.15;;;2.70;;
53281;SDS011;39167;52.794;6.892;2023-04-26T13:48:26;7.18;;;2.22;;
53281;SDS011;39167;52.794;6.892;2023-04-26T13:50:52;6.30;;;2.42;;
53281;SDS011;39167;52.794;6.892;2023-04-26T13:53:20;5.32;;;2.28;;
53281;SDS011;39167;52.794;6.892;2023-04-26T13:55:46;5.75;;;2.10;;
53281;SDS011;39167;52.794;6.892;2023-04-26T13:58:12;7.32;;;2.60;;
53281;SDS011;39167;52.794;6.892;2023-04-26T14:00:38;5.55;;;2.58;;
53281;SDS011;39167;52.794;6.892;2023-04-26T14:03:04;7.60;;;2.40;;
53281;SDS011;39167;52.794;6.892;2023-04-26T14:05:30;8.98;;;2.45;;
53281;SDS011;39167;52.794;6.892;2023-04-26T14:07:56;5.57;;;2.20;;
53281;SDS011;39167;52.794;6.892;2023-04-26T14:10:22;7.45;;;2.25;;
53281;SDS011;39167;52.794;6.892;2023-04-26T14:12:48;6.32;;;2.45;;
53281;SDS011;39167;52.794;6.892;2023-04-26T14:15:14;4.43;;;2.38;;
53281;SDS011;39167;52.794;6.892;2023-04-26T14:17:40;6.55;;;2.15;;
53281;SDS011;39167;52.794;6.892;2023-04-26T14:20:06;6.90;;;2.80;;
53281;SDS011;39167;52.794;6.892;2023-04-26T14:22:34;4.82;;;2.17;;
53281;SDS011;39167;52.794;6.892;2023-04-26T14:25:00;6.78;;;2.47;;
53281;SDS011;39167;52.794;6.892;2023-04-26T14:27:25;5.80;;;2.10;;
53281;SDS011;39167;52.794;6.892;2023-04-26T14:29:51;7.10;;;2.38;;
53281;SDS011;39167;52.794;6.892;2023-04-26T14:32:20;2.97;;;1.77;;
53281;SDS011;39167;52.794;6.892;2023-04-26T14:34:46;9.23;;;2.13;;
53281;SDS011;39167;52.794;6.892;2023-04-26T14:37:12;8.23;;;2.20;;
53281;SDS011;39167;52.794;6.892;2023-04-26T14:39:37;7.50;;;1.90;;
53281;SDS011;39167;52.794;6.892;2023-04-26T14:42:03;6.15;;;2.30;;
53281;SDS011;39167;52.794;6.892;2023-04-26T14:44:29;10.20;;;2.22;;
53281;SDS011;39167;52.794;6.892;2023-04-26T14:46:55;9.90;;;2.65;;
53281;SDS011;39167;52.794;6.892;2023-04-26T14:49:21;8.80;;;2.17;;
53281;SDS011;39167;52.794;6.892;2023-04-26T14:51:46;5.75;;;2.10;;
53281;SDS011;39167;52.794;6.892;2023-04-26T14:54:12;6.22;;;1.70;;
53281;SDS011;39167;52.794;6.892;2023-04-26T14:56:42;9.48;;;2.20;;
53281;SDS011;39167;52.794;6.892;2023-04-26T14:59:08;7.43;;;2.15;;
53281;SDS011;39167;52.794;6.892;2023-04-26T15:01:33;4.28;;;2.03;;
53281;SDS011;39167;52.794;6.892;2023-04-26T15:03:59;6.90;;;2.40;;
53281;SDS011;39167;52.794;6.892;2023-04-26T15:06:25;5.13;;;2.20;;